Česky Dansk Deutsch English Español Suomi Français Magyar Italiano Nederlands norsk Polski Português svenska Türkçe

 

Het Weer

Meppen-Mil (Duitsland)

11:20, 16 augustus 2016 (GMT)

NWNNE
WE
SWSSE
Home            
Meppen-Mil Nordhorn Hopsten Rheine-Bentlage Twenthe Groningen Airport Eelde Muenster / Osnabrueck Diepholz Wittmundhaven Jever Lemwerder Bremen Guetersloh Leeuwarden Deelen Lelystad Bueckeburg Kalkar Dortmund / Wickede Wunstorf Nordholz Laarbruch Niederrhein

Om een weerknop op uw website of weblog te plaatsen, copieer onderstaande code en plak die in uw pagina. In het eerste vakje staat HTML-code, in het tweede vakje UBB-code.


Add to Google

Details

Wind speed:2 bf, 5 kn, 2.6 m/s, 5.8 miles/h, 9.3 km/h
Wind direction:NNE, 020°
Visibility:Greater than 10000 m, 10 km, 32800 ft, 6.2 miles
Clouds:Ein wenig bewölkt at 2500 ft, 762 m
Durchbrochene Bewölkung at 4300 ft, 1311 m
Temperature:18°C, 64°F
Dew-point:11°C, 52°F
Atmospheric pressure:1020 hPa, 765.1 mmHg, 30.12 inHg, 1.007 atm
Relative humidity:63.6 %
METAR:ETWM 161120Z 02005KT 9999 FEW025 BKN043 18/11 Q1020 BLU

Snelkoppelingen

Actuele weersinformatie van de hele wereld. Voeg locaties toe met het plus (+) symbool. Deze snelkoppelingen kunnen worden toegevoegd aan Google.

Lid van de Technetium groep

website free tracking
StatCounter NetStat W3C Validator

24-11-2020 08:04:48
astro.technetium.be money.technetium.be phote.technetium.be tafeltennistafel.technetium.be www.ligfiets.net